Time;durP1;ratioP1;P1;durP2;ratioP2;P2;SDS_P1;SDS_P2;PMS_P1;PMS_P2;Temp;Humidity;BMP_temperature;BMP_pressure;BME280_temperature;BME280_humidity;BME280_pressure;Samples;Min_cycle;Max_cycle;Signal;HPM_P1;HPM_P2
2024/03/15 00:02:10;;;;;;;9.35;5.70;;;;;;;;;;5055796;28;20572;-71
2024/03/15 00:04:36;;;;;;;6.90;5.03;;;;;;;;;;5060626;28;20189;-71
2024/03/15 00:07:04;;;;;;;7.93;4.70;;;;;;;;;;5054007;28;20439;-71
2024/03/15 00:09:29;;;;;;;8.13;4.95;;;;;;;;;;5042606;28;20563;-71
2024/03/15 00:11:59;;;;;;;6.05;5.20;;;;;;;;;;5061433;28;20189;-71
2024/03/15 00:14:24;;;;;;;7.30;5.38;;;;;;;;;;5054065;28;20608;-70
2024/03/15 00:16:50;;;;;;;7.03;5.38;;;;;;;;;;5059233;28;20268;-70
2024/03/15 00:19:17;;;;;;;6.18;4.60;;;;;;;;;;5054055;28;20278;-70
2024/03/15 00:21:42;;;;;;;6.60;5.20;;;;;;;;;;5063265;28;20558;-70
2024/03/15 00:24:08;;;;;;;7.18;5.05;;;;;;;;;;5057251;28;20225;-70
2024/03/15 00:26:35;;;;;;;9.80;5.45;;;;;;;;;;5069169;28;20612;-71
2024/03/15 00:29:03;;;;;;;9.93;5.63;;;;;;;;;;5059093;28;20195;-70
2024/03/15 00:31:29;;;;;;;7.70;5.30;;;;;;;;;;5072294;28;20311;-71
2024/03/15 00:33:54;;;;;;;6.00;4.72;;;;;;;;;;5077172;28;20620;-71
2024/03/15 00:36:20;;;;;;;8.13;5.25;;;;;;;;;;5065043;28;20232;-70
2024/03/15 00:38:45;;;;;;;5.68;4.65;;;;;;;;;;5071860;28;20257;-70
2024/03/15 00:41:11;;;;;;;10.60;5.38;;;;;;;;;;5067090;28;20665;-71
2024/03/15 00:43:37;;;;;;;7.95;4.90;;;;;;;;;;5059970;28;20209;-70
2024/03/15 00:46:02;;;;;;;9.70;5.40;;;;;;;;;;5062547;28;20189;-71
2024/03/15 00:48:28;;;;;;;9.65;5.78;;;;;;;;;;5064303;28;20185;-71
2024/03/15 00:50:53;;;;;;;7.18;5.15;;;;;;;;;;5069312;28;20220;-71
2024/03/15 00:53:19;;;;;;;8.68;5.20;;;;;;;;;;5061450;28;20182;-71
2024/03/15 00:55:45;;;;;;;9.18;5.53;;;;;;;;;;5062779;28;20970;-71
2024/03/15 00:58:11;;;;;;;8.75;5.38;;;;;;;;;;5067551;28;20426;-71
2024/03/15 01:00:36;;;;;;;6.82;5.25;;;;;;;;;;5057315;28;20246;-71
2024/03/15 01:03:02;;;;;;;9.07;5.47;;;;;;;;;;5066171;28;20198;-71
2024/03/15 01:05:27;;;;;;;9.05;5.78;;;;;;;;;;5056090;28;20251;-71
2024/03/15 01:07:53;;;;;;;9.48;4.97;;;;;;;;;;5057989;28;20188;-70
2024/03/15 01:10:19;;;;;;;10.52;6.28;;;;;;;;;;5068643;28;20255;-70
2024/03/15 01:12:44;;;;;;;8.57;5.90;;;;;;;;;;5062429;28;20188;-71
2024/03/15 01:15:09;;;;;;;10.27;5.80;;;;;;;;;;5057065;28;20228;-71
2024/03/15 01:17:36;;;;;;;9.50;5.90;;;;;;;;;;5062833;28;20697;-71
2024/03/15 01:20:05;;;;;;;9.65;5.82;;;;;;;;;;5070512;28;20223;-71
2024/03/15 01:22:32;;;;;;;8.82;5.60;;;;;;;;;;5068564;28;20193;-71
2024/03/15 01:24:58;;;;;;;8.27;6.25;;;;;;;;;;5065680;28;20185;-71
2024/03/15 01:27:24;;;;;;;9.45;6.05;;;;;;;;;;5061181;28;20524;-71
2024/03/15 01:29:50;;;;;;;10.07;6.85;;;;;;;;;;5070545;28;20201;-72
2024/03/15 01:32:15;;;;;;;8.73;6.22;;;;;;;;;;5067480;28;20193;-71
2024/03/15 01:34:41;;;;;;;8.30;6.13;;;;;;;;;;5065512;28;20211;-72
2024/03/15 01:37:06;;;;;;;9.02;6.55;;;;;;;;;;5064078;28;20407;-71
2024/03/15 01:39:32;;;;;;;10.98;6.28;;;;;;;;;;5066798;28;20241;-71
2024/03/15 01:41:57;;;;;;;10.50;6.03;;;;;;;;;;5063540;28;20189;-71
2024/03/15 01:44:23;;;;;;;10.10;6.32;;;;;;;;;;5065268;28;20196;-71
2024/03/15 01:46:49;;;;;;;8.55;6.40;;;;;;;;;;5057751;28;20189;-71
2024/03/15 01:49:14;;;;;;;10.57;6.72;;;;;;;;;;5067067;28;20188;-71
2024/03/15 01:51:40;;;;;;;10.98;6.45;;;;;;;;;;5052128;28;20181;-71
2024/03/15 01:54:07;;;;;;;11.38;6.57;;;;;;;;;;5062414;28;20205;-71
2024/03/15 01:56:32;;;;;;;10.23;6.40;;;;;;;;;;5072057;28;20555;-71
2024/03/15 01:58:59;;;;;;;9.88;6.63;;;;;;;;;;5070461;28;20192;-71
2024/03/15 02:01:24;;;;;;;13.63;6.43;;;;;;;;;;5069494;28;20181;-71
2024/03/15 02:03:49;;;;;;;11.15;7.40;;;;;;;;;;5068577;28;20196;-71
2024/03/15 02:06:15;;;;;;;10.05;6.82;;;;;;;;;;5068311;28;20196;-71
2024/03/15 02:08:41;;;;;;;10.38;6.88;;;;;;;;;;5065553;28;20184;-71
2024/03/15 02:11:07;;;;;;;9.85;6.57;;;;;;;;;;5063601;28;20668;-71
2024/03/15 02:13:32;;;;;;;13.35;7.10;;;;;;;;;;5065138;28;20204;-71
2024/03/15 02:15:58;;;;;;;8.68;6.88;;;;;;;;;;5062983;28;20279;-71
2024/03/15 02:18:23;;;;;;;9.80;6.80;;;;;;;;;;5055332;28;20204;-71
2024/03/15 02:20:49;;;;;;;9.27;7.13;;;;;;;;;;5063945;28;20186;-71
2024/03/15 02:23:15;;;;;;;10.10;7.03;;;;;;;;;;5065871;28;20963;-71
2024/03/15 02:25:41;;;;;;;8.40;6.93;;;;;;;;;;5059260;28;20645;-72
2024/03/15 02:28:08;;;;;;;8.45;6.65;;;;;;;;;;5052190;28;20254;-71
2024/03/15 02:30:33;;;;;;;11.32;6.88;;;;;;;;;;5058551;28;20240;-71
2024/03/15 02:32:59;;;;;;;10.80;7.15;;;;;;;;;;5067444;28;20228;-72
2024/03/15 02:35:24;;;;;;;9.00;6.80;;;;;;;;;;5056188;28;20229;-71
2024/03/15 02:37:52;;;;;;;9.02;6.15;;;;;;;;;;5064518;28;20260;-71
2024/03/15 02:40:17;;;;;;;8.25;6.90;;;;;;;;;;5068427;28;20193;-71
2024/03/15 02:42:42;;;;;;;12.10;6.72;;;;;;;;;;5061117;28;20291;-71
2024/03/15 02:45:09;;;;;;;10.07;7.07;;;;;;;;;;5064308;28;20245;-71
2024/03/15 02:47:36;;;;;;;9.75;6.47;;;;;;;;;;5069023;28;20556;-71
2024/03/15 02:50:02;;;;;;;9.68;6.50;;;;;;;;;;5053005;28;20696;-71
2024/03/15 02:52:28;;;;;;;11.05;6.40;;;;;;;;;;5051944;28;20185;-71
2024/03/15 02:54:56;;;;;;;14.60;6.95;;;;;;;;;;5060082;28;20548;-71
2024/03/15 02:57:22;;;;;;;10.35;6.82;;;;;;;;;;5062584;28;20221;-72
2024/03/15 02:59:47;;;;;;;10.57;6.78;;;;;;;;;;5062674;28;20204;-72
2024/03/15 03:02:14;;;;;;;11.02;6.18;;;;;;;;;;5066364;28;20185;-72
2024/03/15 03:04:40;;;;;;;10.20;6.78;;;;;;;;;;5066376;28;20195;-72
2024/03/15 03:07:06;;;;;;;11.73;6.70;;;;;;;;;;5060833;28;20181;-69
2024/03/15 03:09:31;;;;;;;12.07;7.13;;;;;;;;;;5066196;28;20690;-72
2024/03/15 03:11:57;;;;;;;9.02;6.60;;;;;;;;;;5064028;28;20176;-72
2024/03/15 03:14:23;;;;;;;11.63;6.85;;;;;;;;;;5066994;28;20208;-72
2024/03/15 03:16:49;;;;;;;12.20;6.85;;;;;;;;;;5057978;28;20450;-72
2024/03/15 03:19:17;;;;;;;10.40;6.93;;;;;;;;;;5056649;28;20213;-71
2024/03/15 03:21:46;;;;;;;12.98;6.82;;;;;;;;;;5065252;28;20547;-71
2024/03/15 03:24:14;;;;;;;11.25;6.78;;;;;;;;;;5060811;28;20288;-71
2024/03/15 03:26:39;;;;;;;10.00;6.38;;;;;;;;;;5061384;28;20197;-71
2024/03/15 03:29:06;;;;;;;10.27;6.35;;;;;;;;;;5062898;28;20197;-71
2024/03/15 03:31:32;;;;;;;12.25;6.72;;;;;;;;;;5062334;28;20720;-71
2024/03/15 03:33:57;;;;;;;8.70;6.50;;;;;;;;;;5056961;28;20276;-72
2024/03/15 03:36:23;;;;;;;9.55;6.47;;;;;;;;;;5059376;28;20315;-70
2024/03/15 03:38:48;;;;;;;12.02;6.88;;;;;;;;;;5062319;28;20191;-71
2024/03/15 03:41:14;;;;;;;10.25;6.72;;;;;;;;;;5063426;28;20260;-72
2024/03/15 03:43:41;;;;;;;14.02;6.53;;;;;;;;;;5062520;28;20189;-71
2024/03/15 03:46:06;;;;;;;8.93;6.70;;;;;;;;;;5062037;28;20275;-71
2024/03/15 03:48:32;;;;;;;12.60;6.68;;;;;;;;;;5062901;28;20281;-71
2024/03/15 03:51:00;;;;;;;10.93;6.47;;;;;;;;;;5062306;28;20205;-71
2024/03/15 03:53:26;;;;;;;14.23;6.25;;;;;;;;;;5067619;28;20343;-71
2024/03/15 03:55:52;;;;;;;12.10;6.45;;;;;;;;;;5065253;28;20245;-71
2024/03/15 03:58:18;;;;;;;9.88;6.28;;;;;;;;;;5067434;28;20260;-71
2024/03/15 04:00:44;;;;;;;10.65;6.68;;;;;;;;;;5063837;28;20546;-71
2024/03/15 04:03:10;;;;;;;10.02;6.70;;;;;;;;;;5071834;28;20199;-71
2024/03/15 04:05:38;;;;;;;9.63;6.40;;;;;;;;;;5069541;28;20189;-71
2024/03/15 04:08:03;;;;;;;8.85;5.90;;;;;;;;;;5051210;28;20185;-71
2024/03/15 04:10:30;;;;;;;10.88;6.28;;;;;;;;;;5056714;28;20579;-72
2024/03/15 04:12:56;;;;;;;11.45;7.03;;;;;;;;;;5060391;28;20269;-71
2024/03/15 04:15:22;;;;;;;10.85;6.20;;;;;;;;;;5063941;28;20582;-71
2024/03/15 04:17:47;;;;;;;9.70;6.50;;;;;;;;;;5056879;28;20193;-70
2024/03/15 04:20:16;;;;;;;11.15;6.35;;;;;;;;;;5072480;28;20264;-71
2024/03/15 04:22:45;;;;;;;9.77;6.30;;;;;;;;;;5061600;28;20197;-71
2024/03/15 04:25:16;;;;;;;13.18;6.82;;;;;;;;;;5044917;28;20196;-71
2024/03/15 04:27:46;;;;;;;9.90;6.18;;;;;;;;;;5068089;28;20486;-71
2024/03/15 04:30:16;;;;;;;9.45;6.97;;;;;;;;;;5071373;28;20207;-70
2024/03/15 04:32:47;;;;;;;9.32;6.63;;;;;;;;;;5070603;28;20240;-70
2024/03/15 04:35:15;;;;;;;11.57;6.72;;;;;;;;;;5071089;28;20225;-71
2024/03/15 04:37:41;;;;;;;10.40;6.40;;;;;;;;;;5069376;28;20271;-71
2024/03/15 04:40:09;;;;;;;12.43;6.35;;;;;;;;;;5070081;28;20270;-71
2024/03/15 04:42:35;;;;;;;10.73;6.07;;;;;;;;;;5069015;28;20198;-71
2024/03/15 04:45:04;;;;;;;12.25;6.55;;;;;;;;;;5063856;28;20189;-71
2024/03/15 04:47:29;;;;;;;10.38;6.13;;;;;;;;;;5064131;28;20197;-71
2024/03/15 04:49:55;;;;;;;7.47;5.75;;;;;;;;;;5057580;28;20267;-71
2024/03/15 04:52:24;;;;;;;9.27;5.97;;;;;;;;;;5063870;28;20246;-72
2024/03/15 04:54:50;;;;;;;10.18;6.22;;;;;;;;;;5068655;28;20623;-71
2024/03/15 04:57:18;;;;;;;11.25;5.95;;;;;;;;;;5068883;28;20276;-71
2024/03/15 04:59:47;;;;;;;13.77;6.68;;;;;;;;;;5066528;28;20230;-71
2024/03/15 05:02:12;;;;;;;15.43;7.25;;;;;;;;;;5075074;28;20275;-71
2024/03/15 05:04:39;;;;;;;10.50;6.55;;;;;;;;;;5064973;28;20735;-71
2024/03/15 05:07:05;;;;;;;13.00;7.32;;;;;;;;;;5064644;28;20200;-73
2024/03/15 05:09:30;;;;;;;12.38;6.93;;;;;;;;;;5066991;28;20185;-76
2024/03/15 05:11:56;;;;;;;13.18;7.50;;;;;;;;;;5065824;28;20238;-76
2024/03/15 05:14:21;;;;;;;14.20;7.93;;;;;;;;;;5066720;28;20198;-76
2024/03/15 05:16:56;;;;;;;14.00;8.13;;;;;;;;;;5062978;28;20212;-77
2024/03/15 05:19:22;;;;;;;14.57;8.80;;;;;;;;;;5060804;28;20336;-77
2024/03/15 05:21:49;;;;;;;13.32;8.60;;;;;;;;;;5067758;28;20189;-76
2024/03/15 05:24:15;;;;;;;19.13;8.88;;;;;;;;;;5065846;28;20664;-77
2024/03/15 05:26:41;;;;;;;12.25;8.63;;;;;;;;;;5066348;28;20237;-76
2024/03/15 05:29:07;;;;;;;14.98;8.70;;;;;;;;;;5062756;28;20707;-76
2024/03/15 05:31:32;;;;;;;15.50;9.35;;;;;;;;;;5062950;28;20225;-75
2024/03/15 05:33:58;;;;;;;17.17;9.88;;;;;;;;;;5068651;28;20265;-75
2024/03/15 05:36:25;;;;;;;14.43;9.43;;;;;;;;;;5065608;28;20358;-74
2024/03/15 05:38:51;;;;;;;15.52;9.63;;;;;;;;;;5064689;28;20605;-75
2024/03/15 05:41:16;;;;;;;16.08;10.05;;;;;;;;;;5058063;28;20283;-76
2024/03/15 05:43:42;;;;;;;15.02;9.52;;;;;;;;;;5057295;28;20307;-75
2024/03/15 05:46:07;;;;;;;13.80;10.25;;;;;;;;;;5047978;28;20221;-74
2024/03/15 05:48:33;;;;;;;15.38;9.48;;;;;;;;;;5050669;28;20652;-75
2024/03/15 05:51:00;;;;;;;16.60;10.40;;;;;;;;;;5065803;28;20295;-75
2024/03/15 05:53:26;;;;;;;14.70;9.85;;;;;;;;;;5067163;28;20204;-75
2024/03/15 05:55:52;;;;;;;18.30;10.00;;;;;;;;;;5059788;28;20277;-74
2024/03/15 05:58:17;;;;;;;14.32;9.80;;;;;;;;;;5060623;28;20663;-73
2024/03/15 06:00:43;;;;;;;17.15;11.52;;;;;;;;;;5060947;28;20185;-73
2024/03/15 06:03:09;;;;;;;13.23;10.07;;;;;;;;;;5067571;28;20274;-73
2024/03/15 06:05:35;;;;;;;14.73;10.25;;;;;;;;;;5062488;28;20197;-73
2024/03/15 06:08:01;;;;;;;18.17;10.60;;;;;;;;;;5063781;28;20540;-73
2024/03/15 06:10:28;;;;;;;18.98;10.45;;;;;;;;;;5064063;28;20559;-73
2024/03/15 06:12:55;;;;;;;17.95;10.07;;;;;;;;;;5061152;28;20196;-73
2024/03/15 06:15:21;;;;;;;20.08;10.77;;;;;;;;;;5061178;28;20224;-73
2024/03/15 06:17:47;;;;;;;13.13;10.10;;;;;;;;;;5064936;28;20249;-73
2024/03/15 06:20:13;;;;;;;18.30;10.32;;;;;;;;;;5062047;28;20672;-73
2024/03/15 06:22:39;;;;;;;14.82;10.38;;;;;;;;;;5053909;28;20358;-73
2024/03/15 06:25:05;;;;;;;16.83;10.35;;;;;;;;;;5066894;28;20679;-74
2024/03/15 06:27:31;;;;;;;18.05;10.77;;;;;;;;;;5048324;28;20188;-73
2024/03/15 06:29:57;;;;;;;18.52;9.88;;;;;;;;;;5069561;28;20516;-73
2024/03/15 06:32:35;;;;;;;14.75;9.82;;;;;;;;;;5065208;28;20467;-74
2024/03/15 06:35:08;;;;;;;15.85;10.73;;;;;;;;;;5062287;28;20267;-74
2024/03/15 06:37:33;;;;;;;14.32;10.13;;;;;;;;;;5056267;28;20553;-74
2024/03/15 06:42:34;;;;;;;17.55;11.20;;;;;;;;;;5062728;28;20459;-74
2024/03/15 06:45:08;;;;;;;17.83;11.90;;;;;;;;;;5062595;28;20184;-74
2024/03/15 06:47:34;;;;;;;16.45;11.60;;;;;;;;;;5055649;28;20176;-74
2024/03/15 06:52:42;;;;;;;14.50;9.60;;;;;;;;;;5066937;28;20195;-73
2024/03/15 06:55:10;;;;;;;15.50;10.30;;;;;;;;;;5067614;28;20189;-73
2024/03/15 06:57:38;;;;;;;19.13;10.95;;;;;;;;;;5064368;28;20652;-73
2024/03/15 07:00:11;;;;;;;18.52;9.60;;;;;;;;;;5071623;28;20184;-73
2024/03/15 07:02:42;;;;;;;17.67;9.60;;;;;;;;;;5074284;28;20214;-73
2024/03/15 07:05:08;;;;;;;14.82;9.63;;;;;;;;;;5045412;28;20234;-72
2024/03/15 07:07:37;;;;;;;13.55;8.63;;;;;;;;;;5073039;28;20664;-71
2024/03/15 07:10:04;;;;;;;16.45;9.07;;;;;;;;;;5072883;28;20303;-72
2024/03/15 07:12:30;;;;;;;13.00;8.25;;;;;;;;;;5068771;28;20268;-71
2024/03/15 07:14:56;;;;;;;11.93;7.45;;;;;;;;;;5057500;28;20816;-70
2024/03/15 07:17:22;;;;;;;14.75;8.43;;;;;;;;;;5063640;28;20188;-71
2024/03/15 07:19:49;;;;;;;11.82;7.60;;;;;;;;;;5064874;28;20200;-71
2024/03/15 07:22:15;;;;;;;13.50;7.50;;;;;;;;;;5060248;28;20188;-71
2024/03/15 07:24:42;;;;;;;15.10;8.25;;;;;;;;;;5065702;28;20192;-71
2024/03/15 07:27:07;;;;;;;14.00;7.50;;;;;;;;;;5061397;28;20216;-72
2024/03/15 07:29:33;;;;;;;10.10;7.25;;;;;;;;;;5065888;28;20197;-72
2024/03/15 07:31:59;;;;;;;12.63;7.25;;;;;;;;;;5068351;28;20231;-71
2024/03/15 07:34:24;;;;;;;11.48;7.25;;;;;;;;;;5066553;28;20192;-72
2024/03/15 07:36:56;;;;;;;11.52;7.15;;;;;;;;;;5068937;28;20742;-72
2024/03/15 07:39:28;;;;;;;8.45;6.65;;;;;;;;;;5068235;28;20542;-71
2024/03/15 07:41:55;;;;;;;12.68;7.60;;;;;;;;;;5067849;28;20188;-71
2024/03/15 07:44:23;;;;;;;13.77;7.75;;;;;;;;;;5062093;28;20192;-72
2024/03/15 07:46:48;;;;;;;10.43;7.05;;;;;;;;;;5068461;28;20215;-72
2024/03/15 07:49:14;;;;;;;12.23;6.97;;;;;;;;;;5064774;28;20670;-71
2024/03/15 07:51:40;;;;;;;13.25;7.18;;;;;;;;;;5065228;28;20514;-72
2024/03/15 07:54:05;;;;;;;9.65;7.18;;;;;;;;;;5066283;28;20189;-72
2024/03/15 07:56:31;;;;;;;10.48;6.47;;;;;;;;;;5066729;28;20238;-72
2024/03/15 07:58:57;;;;;;;10.40;6.10;;;;;;;;;;5053239;28;20544;-72
2024/03/15 08:01:22;;;;;;;17.25;6.82;;;;;;;;;;5062803;28;20267;-72
2024/03/15 08:03:48;;;;;;;9.63;6.70;;;;;;;;;;5064671;28;20189;-72
2024/03/15 08:06:15;;;;;;;11.18;6.90;;;;;;;;;;5067096;28;20215;-71
2024/03/15 08:08:40;;;;;;;10.65;6.70;;;;;;;;;;5060506;28;20217;-71
2024/03/15 08:11:06;;;;;;;10.07;6.93;;;;;;;;;;5074784;28;20287;-72
2024/03/15 08:13:31;;;;;;;10.32;6.82;;;;;;;;;;5067940;28;20193;-72
2024/03/15 08:16:18;;;;;;;12.32;6.40;;;;;;;;;;5067743;28;20556;-72
2024/03/15 08:18:49;;;;;;;12.80;6.82;;;;;;;;;;5056194;28;20322;-71
2024/03/15 08:21:17;;;;;;;8.48;6.00;;;;;;;;;;5067525;28;20185;-71
2024/03/15 08:23:44;;;;;;;9.00;6.28;;;;;;;;;;5065131;28;20195;-71
2024/03/15 08:26:14;;;;;;;11.40;6.18;;;;;;;;;;5062539;28;20306;-72
2024/03/15 08:28:42;;;;;;;12.32;6.55;;;;;;;;;;5060146;28;20205;-71
2024/03/15 08:31:08;;;;;;;7.90;5.93;;;;;;;;;;5052309;28;20687;-71
2024/03/15 08:33:34;;;;;;;9.98;6.45;;;;;;;;;;5068151;28;20231;-71
2024/03/15 08:36:00;;;;;;;10.68;6.13;;;;;;;;;;5052419;28;20320;-71
2024/03/15 08:38:26;;;;;;;9.20;5.70;;;;;;;;;;5066042;28;20558;-71
2024/03/15 08:40:52;;;;;;;9.82;6.10;;;;;;;;;;5067651;28;20302;-71
2024/03/15 08:43:17;;;;;;;11.63;5.53;;;;;;;;;;5072549;28;20193;-71
2024/03/15 08:45:43;;;;;;;9.02;5.90;;;;;;;;;;5068871;28;20193;-71
2024/03/15 08:48:12;;;;;;;7.68;5.80;;;;;;;;;;5064426;28;20659;-71
2024/03/15 08:50:37;;;;;;;12.45;6.60;;;;;;;;;;5086491;28;20528;-71
2024/03/15 08:53:03;;;;;;;8.18;6.25;;;;;;;;;;5071615;28;20191;-71
2024/03/15 08:55:28;;;;;;;9.88;5.97;;;;;;;;;;5071879;28;20272;-71
2024/03/15 08:57:54;;;;;;;12.68;5.97;;;;;;;;;;5071635;28;20252;-71
2024/03/15 09:00:20;;;;;;;11.65;6.03;;;;;;;;;;5063546;28;20189;-71
2024/03/15 09:02:45;;;;;;;10.60;6.07;;;;;;;;;;5069949;28;20185;-71
2024/03/15 09:05:14;;;;;;;10.98;6.55;;;;;;;;;;5062023;28;20189;-71
2024/03/15 09:07:39;;;;;;;10.07;6.35;;;;;;;;;;5073690;28;20345;-71
2024/03/15 09:10:15;;;;;;;12.10;6.45;;;;;;;;;;5070428;28;20662;-72
2024/03/15 09:12:41;;;;;;;12.23;6.28;;;;;;;;;;5071340;28;20200;-72
2024/03/15 09:15:13;;;;;;;11.73;6.47;;;;;;;;;;5071239;28;20234;-71
2024/03/15 09:17:40;;;;;;;10.50;6.57;;;;;;;;;;5070999;28;20193;-71
2024/03/15 09:20:27;;;;;;;9.25;5.93;;;;;;;;;;5067438;28;20683;-71
2024/03/15 09:22:52;;;;;;;10.60;6.05;;;;;;;;;;5067992;28;20291;-71
2024/03/15 09:25:18;;;;;;;9.50;5.72;;;;;;;;;;5053003;28;20276;-71
2024/03/15 09:27:45;;;;;;;13.13;6.45;;;;;;;;;;5069743;28;20188;-71
2024/03/15 09:30:18;;;;;;;14.95;6.07;;;;;;;;;;5072168;28;20292;-71
2024/03/15 09:32:44;;;;;;;11.82;5.60;;;;;;;;;;5074806;28;20332;-71
2024/03/15 09:35:13;;;;;;;10.48;5.32;;;;;;;;;;5056736;28;20217;-71
2024/03/15 09:37:46;;;;;;;8.95;5.55;;;;;;;;;;5070416;28;20247;-71
2024/03/15 09:40:15;;;;;;;9.25;5.13;;;;;;;;;;5070752;28;20185;-71
2024/03/15 09:42:43;;;;;;;11.25;5.25;;;;;;;;;;5057670;28;20196;-71
2024/03/15 09:45:12;;;;;;;11.95;4.78;;;;;;;;;;5061412;28;20181;-71
2024/03/15 09:47:40;;;;;;;8.73;4.00;;;;;;;;;;5070468;28;20200;-71
2024/03/15 09:50:16;;;;;;;8.98;4.45;;;;;;;;;;5070520;28;20205;-71
2024/03/15 09:52:45;;;;;;;8.90;4.47;;;;;;;;;;5055307;28;20192;-71
2024/03/15 09:55:19;;;;;;;7.80;4.60;;;;;;;;;;5070292;28;20181;-71
2024/03/15 09:57:46;;;;;;;7.57;4.50;;;;;;;;;;5069764;28;20197;-71
2024/03/15 10:00:22;;;;;;;8.20;4.07;;;;;;;;;;5070056;28;20632;-71
2024/03/15 10:02:51;;;;;;;6.40;3.75;;;;;;;;;;5066752;28;20224;-71
2024/03/15 10:05:20;;;;;;;7.82;4.93;;;;;;;;;;5064268;28;20239;-71
2024/03/15 10:07:46;;;;;;;8.05;3.90;;;;;;;;;;5070955;28;20668;-72
2024/03/15 10:10:12;;;;;;;9.93;4.55;;;;;;;;;;5068365;28;20200;-71
2024/03/15 10:12:44;;;;;;;6.43;3.90;;;;;;;;;;5069099;28;20269;-71
2024/03/15 10:15:12;;;;;;;10.13;4.40;;;;;;;;;;5068395;28;20188;-71
2024/03/15 10:17:43;;;;;;;6.30;3.63;;;;;;;;;;5069231;28;20214;-71
2024/03/15 10:20:10;;;;;;;6.50;3.35;;;;;;;;;;5056329;28;20209;-71
2024/03/15 10:22:36;;;;;;;11.68;4.20;;;;;;;;;;5052874;28;20181;-71
2024/03/15 10:25:01;;;;;;;6.97;3.75;;;;;;;;;;5068603;28;20196;-71
2024/03/15 10:27:27;;;;;;;14.00;3.75;;;;;;;;;;5069522;28;20577;-70
2024/03/15 10:29:55;;;;;;;7.70;3.95;;;;;;;;;;5085135;28;20648;-71
2024/03/15 10:32:21;;;;;;;8.25;4.03;;;;;;;;;;5069537;28;20193;-71
2024/03/15 10:34:47;;;;;;;7.60;4.40;;;;;;;;;;5070584;28;20562;-71
2024/03/15 10:37:13;;;;;;;8.52;4.20;;;;;;;;;;5065425;28;20258;-70
2024/03/15 10:39:40;;;;;;;6.72;3.70;;;;;;;;;;5068720;28;20200;-71
2024/03/15 10:42:12;;;;;;;6.68;4.00;;;;;;;;;;5069788;28;20206;-71
2024/03/15 10:44:39;;;;;;;5.97;3.95;;;;;;;;;;5061982;28;20185;-71
2024/03/15 10:47:12;;;;;;;7.60;4.13;;;;;;;;;;5063129;28;20267;-70
2024/03/15 10:49:38;;;;;;;8.73;3.70;;;;;;;;;;5066078;28;20192;-70
2024/03/15 10:52:04;;;;;;;7.15;3.30;;;;;;;;;;5051666;28;20297;-70
2024/03/15 10:54:30;;;;;;;5.05;3.65;;;;;;;;;;5053723;28;20263;-70
2024/03/15 10:56:55;;;;;;;9.30;3.70;;;;;;;;;;5069217;28;20234;-70
2024/03/15 10:59:21;;;;;;;7.15;3.20;;;;;;;;;;5069708;28;20238;-71
2024/03/15 11:01:47;;;;;;;6.65;2.97;;;;;;;;;;5068266;28;20181;-70
2024/03/15 11:04:13;;;;;;;7.15;3.05;;;;;;;;;;5052485;28;20185;-71
2024/03/15 11:06:39;;;;;;;6.97;2.90;;;;;;;;;;5062455;28;20503;-70
2024/03/15 11:09:21;;;;;;;6.72;2.72;;;;;;;;;;5068685;28;20185;-71
2024/03/15 11:12:17;;;;;;;8.93;2.83;;;;;;;;;;5068863;28;20204;-71
2024/03/15 11:14:42;;;;;;;5.35;2.60;;;;;;;;;;5056774;28;20296;-71
2024/03/15 11:17:16;;;;;;;7.18;2.97;;;;;;;;;;5068602;28;20267;-71
2024/03/15 11:19:45;;;;;;;7.18;3.17;;;;;;;;;;5059076;28;20591;-71
2024/03/15 11:22:19;;;;;;;6.70;2.47;;;;;;;;;;5041686;28;20185;-71
2024/03/15 11:24:47;;;;;;;7.20;2.85;;;;;;;;;;5057477;28;20185;-70
2024/03/15 11:27:14;;;;;;;5.93;2.55;;;;;;;;;;5053839;28;20487;-71
2024/03/15 11:29:41;;;;;;;5.88;2.67;;;;;;;;;;5068290;28;20187;-71
2024/03/15 11:32:12;;;;;;;7.78;2.55;;;;;;;;;;5067810;28;20207;-70
2024/03/15 11:34:39;;;;;;;5.28;2.53;;;;;;;;;;5066258;28;20612;-70
2024/03/15 11:37:10;;;;;;;6.10;2.80;;;;;;;;;;5067311;28;20220;-70
2024/03/15 11:39:35;;;;;;;5.90;2.60;;;;;;;;;;5066668;28;20201;-70
2024/03/15 11:42:02;;;;;;;5.57;2.60;;;;;;;;;;5069403;28;20207;-70
2024/03/15 11:44:28;;;;;;;4.72;2.28;;;;;;;;;;5065587;28;20246;-71
2024/03/15 11:46:54;;;;;;;6.10;2.50;;;;;;;;;;5068825;28;20197;-71
2024/03/15 11:49:20;;;;;;;5.50;2.20;;;;;;;;;;5066876;28;20696;-71
2024/03/15 11:51:54;;;;;;;5.10;1.98;;;;;;;;;;5060223;28;20661;-71
2024/03/15 11:54:20;;;;;;;5.18;2.00;;;;;;;;;;5066698;28;20523;-71
2024/03/15 11:56:45;;;;;;;8.02;2.10;;;;;;;;;;5059923;28;20192;-71
2024/03/15 11:59:11;;;;;;;4.28;1.70;;;;;;;;;;5065389;28;20208;-71
2024/03/15 12:01:36;;;;;;;6.03;2.00;;;;;;;;;;5068465;28;20185;-71
2024/03/15 12:04:02;;;;;;;8.23;1.85;;;;;;;;;;5064574;28;20197;-71
2024/03/15 12:06:29;;;;;;;6.78;1.80;;;;;;;;;;5066054;28;20195;-71
2024/03/15 12:09:00;;;;;;;4.80;1.77;;;;;;;;;;5067480;28;20238;-71
2024/03/15 12:11:26;;;;;;;5.10;1.60;;;;;;;;;;5062540;28;20717;-71
2024/03/15 12:13:53;;;;;;;7.78;1.55;;;;;;;;;;5053405;28;20193;-71
2024/03/15 12:16:19;;;;;;;7.53;1.98;;;;;;;;;;5071894;28;20234;-72
2024/03/15 12:18:46;;;;;;;6.78;1.88;;;;;;;;;;5069251;28;20679;-71
2024/03/15 12:21:11;;;;;;;6.90;1.80;;;;;;;;;;5059162;28;20192;-71
2024/03/15 12:23:36;;;;;;;7.75;2.35;;;;;;;;;;5071166;28;20239;-72
2024/03/15 12:26:04;;;;;;;8.68;2.30;;;;;;;;;;5071923;28;20671;-74
2024/03/15 12:28:29;;;;;;;9.50;2.45;;;;;;;;;;5054654;28;20220;-77
2024/03/15 12:30:57;;;;;;;11.27;2.55;;;;;;;;;;5067871;28;20280;-77
2024/03/15 12:33:23;;;;;;;10.98;2.70;;;;;;;;;;5062099;28;20295;-77
2024/03/15 12:35:49;;;;;;;7.93;2.55;;;;;;;;;;5066861;28;20225;-77
2024/03/15 12:38:20;;;;;;;9.68;2.75;;;;;;;;;;5072179;28;20628;-76
2024/03/15 12:40:46;;;;;;;11.60;2.80;;;;;;;;;;5056177;28;20178;-75
2024/03/15 12:43:12;;;;;;;9.77;2.78;;;;;;;;;;5034509;28;20220;-75
2024/03/15 12:45:41;;;;;;;6.22;2.28;;;;;;;;;;5072000;28;20192;-75
2024/03/15 12:48:08;;;;;;;9.48;3.10;;;;;;;;;;5070529;28;20177;-74
2024/03/15 12:50:33;;;;;;;9.73;2.95;;;;;;;;;;5071844;28;20212;-74
2024/03/15 12:53:01;;;;;;;8.10;3.92;;;;;;;;;;5066761;28;20573;-74
2024/03/15 12:55:26;;;;;;;9.10;3.60;;;;;;;;;;5064522;28;20189;-73
2024/03/15 12:57:52;;;;;;;10.73;5.07;;;;;;;;;;5069449;28;20196;-73
2024/03/15 13:00:22;;;;;;;9.20;4.53;;;;;;;;;;5071644;28;20218;-73
2024/03/15 13:02:48;;;;;;;10.35;5.35;;;;;;;;;;5066250;28;20246;-73
2024/03/15 13:05:15;;;;;;;9.57;4.90;;;;;;;;;;5068733;28;20544;-73
2024/03/15 13:07:41;;;;;;;6.65;4.63;;;;;;;;;;5069635;28;20192;-73
2024/03/15 13:10:06;;;;;;;14.07;5.15;;;;;;;;;;5073765;28;20213;-72
2024/03/15 13:12:32;;;;;;;12.55;5.15;;;;;;;;;;5071413;28;20617;-72
2024/03/15 13:14:58;;;;;;;9.35;5.63;;;;;;;;;;5056855;28;20212;-72
2024/03/15 13:17:25;;;;;;;11.63;5.28;;;;;;;;;;5061046;28;20217;-71
2024/03/15 13:19:51;;;;;;;9.38;4.30;;;;;;;;;;5068015;28;20577;-71
2024/03/15 13:22:17;;;;;;;6.93;3.72;;;;;;;;;;5070920;28;20389;-71
2024/03/15 13:24:42;;;;;;;8.95;4.28;;;;;;;;;;5066115;28;20308;-71
2024/03/15 13:27:14;;;;;;;9.48;4.07;;;;;;;;;;5067170;28;20703;-71
2024/03/15 13:29:42;;;;;;;5.30;3.70;;;;;;;;;;5066353;28;20629;-71
2024/03/15 13:32:14;;;;;;;7.18;3.25;;;;;;;;;;5058701;28;20211;-71
2024/03/15 13:34:44;;;;;;;5.40;2.80;;;;;;;;;;5067811;28;20181;-71
2024/03/15 13:37:10;;;;;;;5.30;2.30;;;;;;;;;;5065333;28;20240;-70
2024/03/15 13:39:36;;;;;;;6.22;2.08;;;;;;;;;;5069184;28;20188;-70
2024/03/15 13:42:33;;;;;;;3.72;1.90;;;;;;;;;;5070999;28;20620;-71
2024/03/15 13:44:59;;;;;;;6.13;1.65;;;;;;;;;;5066595;28;20231;-71
2024/03/15 13:48:14;;;;;;;2.80;1.92;;;;;;;;;;5073238;28;20227;-70
2024/03/15 13:50:41;;;;;;;3.15;1.60;;;;;;;;;;5066699;28;20228;-71
2024/03/15 13:53:08;;;;;;;3.90;2.00;;;;;;;;;;5069047;28;20648;-71
2024/03/15 13:55:37;;;;;;;5.00;2.25;;;;;;;;;;5070208;28;20215;-71
2024/03/15 13:58:02;;;;;;;5.57;2.25;;;;;;;;;;5067590;28;20665;-72
2024/03/15 14:00:37;;;;;;;4.18;2.55;;;;;;;;;;5056261;28;20211;-71
2024/03/15 14:03:04;;;;;;;8.13;2.75;;;;;;;;;;5069150;28;20184;-71
2024/03/15 14:05:36;;;;;;;8.35;3.08;;;;;;;;;;5067919;28;20239;-72
2024/03/15 14:08:07;;;;;;;8.00;3.30;;;;;;;;;;5065892;28;21723;-72
2024/03/15 14:10:33;;;;;;;9.38;4.10;;;;;;;;;;5067429;28;20602;-72
2024/03/15 14:12:58;;;;;;;5.53;3.30;;;;;;;;;;5064855;28;20192;-74
2024/03/15 14:15:24;;;;;;;6.97;3.65;;;;;;;;;;5065306;28;20192;-71
2024/03/15 14:17:52;;;;;;;4.72;3.20;;;;;;;;;;5066921;28;20204;-73
2024/03/15 14:20:19;;;;;;;8.93;3.75;;;;;;;;;;5071444;28;20212;-71
2024/03/15 14:22:44;;;;;;;9.68;4.25;;;;;;;;;;5057278;28;20187;-72
2024/03/15 14:25:16;;;;;;;7.75;3.97;;;;;;;;;;5055083;28;20272;-73
2024/03/15 14:27:45;;;;;;;7.03;4.05;;;;;;;;;;5064674;28;20216;-72
2024/03/15 14:30:11;;;;;;;7.13;4.20;;;;;;;;;;5060659;28;20223;-73
2024/03/15 14:32:37;;;;;;;7.78;4.22;;;;;;;;;;5065620;28;20185;-75
2024/03/15 14:35:03;;;;;;;8.02;4.80;;;;;;;;;;5060798;28;20518;-74
2024/03/15 14:37:29;;;;;;;13.00;5.45;;;;;;;;;;5065783;28;20235;-74
2024/03/15 14:39:54;;;;;;;7.53;4.90;;;;;;;;;;5066374;28;20556;-74
2024/03/15 14:42:21;;;;;;;9.23;4.82;;;;;;;;;;5065930;28;20574;-75